sensor_id;sensor_type;location;lat;lon;timestamp;P1;durP1;ratioP1;P2;durP2;ratioP2
43650;SDS011;29247;50.944;5.382;2024-01-25T00:00:17;1.60;;;0.85;;
43650;SDS011;29247;50.944;5.382;2024-01-25T00:02:43;4.03;;;0.60;;
43650;SDS011;29247;50.944;5.382;2024-01-25T00:05:09;2.25;;;0.88;;
43650;SDS011;29247;50.944;5.382;2024-01-25T00:07:34;2.65;;;0.73;;
43650;SDS011;29247;50.944;5.382;2024-01-25T00:10:09;1.23;;;0.75;;
43650;SDS011;29247;50.944;5.382;2024-01-25T00:12:37;1.08;;;0.70;;
43650;SDS011;29247;50.944;5.382;2024-01-25T00:15:03;1.15;;;0.70;;
43650;SDS011;29247;50.944;5.382;2024-01-25T00:17:29;1.40;;;0.82;;
43650;SDS011;29247;50.944;5.382;2024-01-25T00:19:54;5.03;;;0.95;;
43650;SDS011;29247;50.944;5.382;2024-01-25T00:25:20;2.70;;;0.60;;
43650;SDS011;29247;50.944;5.382;2024-01-25T00:27:46;2.83;;;0.80;;
43650;SDS011;29247;50.944;5.382;2024-01-25T00:30:12;0.95;;;0.50;;
43650;SDS011;29247;50.944;5.382;2024-01-25T00:32:41;3.03;;;1.05;;
43650;SDS011;29247;50.944;5.382;2024-01-25T00:35:08;0.77;;;0.55;;
43650;SDS011;29247;50.944;5.382;2024-01-25T00:37:35;1.35;;;0.65;;
43650;SDS011;29247;50.944;5.382;2024-01-25T00:40:02;1.77;;;0.57;;
43650;SDS011;29247;50.944;5.382;2024-01-25T00:42:28;4.07;;;0.65;;
43650;SDS011;29247;50.944;5.382;2024-01-25T00:44:55;0.88;;;0.80;;
43650;SDS011;29247;50.944;5.382;2024-01-25T00:47:21;4.72;;;0.63;;
43650;SDS011;29247;50.944;5.382;2024-01-25T00:49:47;1.88;;;0.75;;
43650;SDS011;29247;50.944;5.382;2024-01-25T00:52:15;1.15;;;0.60;;
43650;SDS011;29247;50.944;5.382;2024-01-25T00:54:41;1.33;;;0.77;;
43650;SDS011;29247;50.944;5.382;2024-01-25T00:57:07;1.35;;;0.82;;
43650;SDS011;29247;50.944;5.382;2024-01-25T00:59:36;2.72;;;0.80;;
43650;SDS011;29247;50.944;5.382;2024-01-25T01:02:02;1.13;;;0.52;;
43650;SDS011;29247;50.944;5.382;2024-01-25T01:04:30;1.42;;;0.70;;
43650;SDS011;29247;50.944;5.382;2024-01-25T01:07:01;0.88;;;0.73;;
43650;SDS011;29247;50.944;5.382;2024-01-25T01:09:29;0.60;;;0.43;;
43650;SDS011;29247;50.944;5.382;2024-01-25T01:11:54;1.73;;;0.70;;
43650;SDS011;29247;50.944;5.382;2024-01-25T01:14:22;3.03;;;0.73;;
43650;SDS011;29247;50.944;5.382;2024-01-25T01:16:48;0.77;;;0.70;;
43650;SDS011;29247;50.944;5.382;2024-01-25T01:19:15;0.50;;;0.50;;
43650;SDS011;29247;50.944;5.382;2024-01-25T01:21:41;1.92;;;0.80;;
43650;SDS011;29247;50.944;5.382;2024-01-25T01:24:09;1.75;;;0.50;;
43650;SDS011;29247;50.944;5.382;2024-01-25T01:26:36;0.50;;;0.50;;
43650;SDS011;29247;50.944;5.382;2024-01-25T01:29:02;0.80;;;0.60;;
43650;SDS011;29247;50.944;5.382;2024-01-25T01:31:28;0.70;;;0.55;;
43650;SDS011;29247;50.944;5.382;2024-01-25T01:33:56;3.00;;;0.80;;
43650;SDS011;29247;50.944;5.382;2024-01-25T01:39:23;4.70;;;1.15;;
43650;SDS011;29247;50.944;5.382;2024-01-25T01:41:53;2.47;;;0.57;;
43650;SDS011;29247;50.944;5.382;2024-01-25T01:44:21;0.93;;;0.65;;
43650;SDS011;29247;50.944;5.382;2024-01-25T01:46:47;1.55;;;0.60;;
43650;SDS011;29247;50.944;5.382;2024-01-25T01:49:15;3.67;;;0.63;;
43650;SDS011;29247;50.944;5.382;2024-01-25T01:51:41;1.08;;;0.88;;
43650;SDS011;29247;50.944;5.382;2024-01-25T01:54:08;2.95;;;0.70;;
43650;SDS011;29247;50.944;5.382;2024-01-25T01:56:37;1.48;;;0.80;;
43650;SDS011;29247;50.944;5.382;2024-01-25T01:59:09;2.08;;;0.90;;
43650;SDS011;29247;50.944;5.382;2024-01-25T02:01:37;2.92;;;0.75;;
43650;SDS011;29247;50.944;5.382;2024-01-25T02:04:04;1.92;;;0.65;;
43650;SDS011;29247;50.944;5.382;2024-01-25T02:06:32;0.43;;;0.43;;
43650;SDS011;29247;50.944;5.382;2024-01-25T02:08:58;1.77;;;0.75;;
43650;SDS011;29247;50.944;5.382;2024-01-25T02:11:24;4.20;;;0.90;;
43650;SDS011;29247;50.944;5.382;2024-01-25T02:13:50;1.20;;;0.70;;
43650;SDS011;29247;50.944;5.382;2024-01-25T02:16:23;0.95;;;0.63;;
43650;SDS011;29247;50.944;5.382;2024-01-25T02:18:49;3.15;;;0.77;;
43650;SDS011;29247;50.944;5.382;2024-01-25T02:21:19;1.58;;;0.70;;
43650;SDS011;29247;50.944;5.382;2024-01-25T02:23:47;2.33;;;0.80;;
43650;SDS011;29247;50.944;5.382;2024-01-25T02:28:43;3.78;;;0.63;;
43650;SDS011;29247;50.944;5.382;2024-01-25T02:31:08;1.60;;;0.63;;
43650;SDS011;29247;50.944;5.382;2024-01-25T02:33:34;1.25;;;0.52;;
43650;SDS011;29247;50.944;5.382;2024-01-25T02:36:00;3.53;;;0.68;;
43650;SDS011;29247;50.944;5.382;2024-01-25T02:38:25;2.28;;;0.60;;
43650;SDS011;29247;50.944;5.382;2024-01-25T02:40:51;1.15;;;0.50;;
43650;SDS011;29247;50.944;5.382;2024-01-25T02:43:21;1.92;;;0.60;;
43650;SDS011;29247;50.944;5.382;2024-01-25T02:45:47;2.45;;;0.60;;
43650;SDS011;29247;50.944;5.382;2024-01-25T02:48:15;1.20;;;0.45;;
43650;SDS011;29247;50.944;5.382;2024-01-25T02:50:44;0.73;;;0.50;;
43650;SDS011;29247;50.944;5.382;2024-01-25T02:53:09;2.17;;;0.60;;
43650;SDS011;29247;50.944;5.382;2024-01-25T02:55:35;2.60;;;0.77;;
43650;SDS011;29247;50.944;5.382;2024-01-25T03:00:35;2.42;;;0.60;;
43650;SDS011;29247;50.944;5.382;2024-01-25T03:03:01;2.03;;;0.70;;
43650;SDS011;29247;50.944;5.382;2024-01-25T03:05:27;0.50;;;0.50;;
43650;SDS011;29247;50.944;5.382;2024-01-25T03:07:52;1.85;;;0.90;;
43650;SDS011;29247;50.944;5.382;2024-01-25T03:10:20;1.17;;;0.50;;
43650;SDS011;29247;50.944;5.382;2024-01-25T03:12:48;1.00;;;0.70;;
43650;SDS011;29247;50.944;5.382;2024-01-25T03:15:14;4.10;;;0.80;;
43650;SDS011;29247;50.944;5.382;2024-01-25T03:17:40;5.00;;;0.77;;
43650;SDS011;29247;50.944;5.382;2024-01-25T03:20:08;3.00;;;0.93;;
43650;SDS011;29247;50.944;5.382;2024-01-25T03:22:37;2.30;;;0.82;;
43650;SDS011;29247;50.944;5.382;2024-01-25T03:27:30;1.70;;;0.80;;
43650;SDS011;29247;50.944;5.382;2024-01-25T03:29:56;2.42;;;0.50;;
43650;SDS011;29247;50.944;5.382;2024-01-25T03:32:24;2.63;;;0.75;;
43650;SDS011;29247;50.944;5.382;2024-01-25T03:34:51;2.17;;;0.60;;
43650;SDS011;29247;50.944;5.382;2024-01-25T03:37:17;2.30;;;0.50;;
43650;SDS011;29247;50.944;5.382;2024-01-25T03:39:45;0.60;;;0.60;;
43650;SDS011;29247;50.944;5.382;2024-01-25T03:42:13;4.85;;;1.00;;
43650;SDS011;29247;50.944;5.382;2024-01-25T03:44:38;1.88;;;0.60;;
43650;SDS011;29247;50.944;5.382;2024-01-25T03:47:07;2.45;;;0.60;;
43650;SDS011;29247;50.944;5.382;2024-01-25T03:49:34;3.08;;;0.90;;
43650;SDS011;29247;50.944;5.382;2024-01-25T03:52:00;1.70;;;0.68;;
43650;SDS011;29247;50.944;5.382;2024-01-25T03:54:26;1.27;;;0.60;;
43650;SDS011;29247;50.944;5.382;2024-01-25T03:56:54;3.17;;;0.65;;
43650;SDS011;29247;50.944;5.382;2024-01-25T03:59:19;1.00;;;0.60;;
43650;SDS011;29247;50.944;5.382;2024-01-25T04:01:47;1.27;;;0.57;;
43650;SDS011;29247;50.944;5.382;2024-01-25T04:04:15;1.05;;;0.57;;
43650;SDS011;29247;50.944;5.382;2024-01-25T04:06:43;0.93;;;0.70;;
43650;SDS011;29247;50.944;5.382;2024-01-25T04:09:13;2.60;;;0.63;;
43650;SDS011;29247;50.944;5.382;2024-01-25T04:11:42;1.98;;;0.60;;
43650;SDS011;29247;50.944;5.382;2024-01-25T04:14:10;2.92;;;0.80;;
43650;SDS011;29247;50.944;5.382;2024-01-25T04:16:38;1.27;;;0.60;;
43650;SDS011;29247;50.944;5.382;2024-01-25T04:19:05;2.63;;;0.50;;
43650;SDS011;29247;50.944;5.382;2024-01-25T04:21:31;3.10;;;0.68;;
43650;SDS011;29247;50.944;5.382;2024-01-25T04:24:00;0.52;;;0.52;;
43650;SDS011;29247;50.944;5.382;2024-01-25T04:26:25;0.60;;;0.50;;
43650;SDS011;29247;50.944;5.382;2024-01-25T04:28:55;1.15;;;0.40;;
43650;SDS011;29247;50.944;5.382;2024-01-25T04:31:21;1.17;;;0.52;;
43650;SDS011;29247;50.944;5.382;2024-01-25T04:33:49;1.27;;;0.63;;
43650;SDS011;29247;50.944;5.382;2024-01-25T04:36:17;2.67;;;0.93;;
43650;SDS011;29247;50.944;5.382;2024-01-25T04:38:42;1.13;;;0.57;;
43650;SDS011;29247;50.944;5.382;2024-01-25T04:41:08;1.27;;;0.50;;
43650;SDS011;29247;50.944;5.382;2024-01-25T04:43:34;1.77;;;0.50;;
43650;SDS011;29247;50.944;5.382;2024-01-25T04:46:01;2.05;;;0.60;;
43650;SDS011;29247;50.944;5.382;2024-01-25T04:48:30;1.55;;;1.08;;
43650;SDS011;29247;50.944;5.382;2024-01-25T04:50:57;0.70;;;0.50;;
43650;SDS011;29247;50.944;5.382;2024-01-25T04:53:25;1.47;;;0.47;;
43650;SDS011;29247;50.944;5.382;2024-01-25T04:55:53;1.00;;;0.70;;
43650;SDS011;29247;50.944;5.382;2024-01-25T04:58:22;0.40;;;0.40;;
43650;SDS011;29247;50.944;5.382;2024-01-25T05:00:47;0.47;;;0.47;;
43650;SDS011;29247;50.944;5.382;2024-01-25T05:03:17;0.88;;;0.55;;
43650;SDS011;29247;50.944;5.382;2024-01-25T05:05:43;1.05;;;0.65;;
43650;SDS011;29247;50.944;5.382;2024-01-25T05:08:11;0.50;;;0.50;;
43650;SDS011;29247;50.944;5.382;2024-01-25T05:10:37;0.47;;;0.47;;
43650;SDS011;29247;50.944;5.382;2024-01-25T05:13:05;0.60;;;0.60;;
43650;SDS011;29247;50.944;5.382;2024-01-25T05:15:33;2.97;;;0.88;;
43650;SDS011;29247;50.944;5.382;2024-01-25T05:17:58;1.02;;;0.50;;
43650;SDS011;29247;50.944;5.382;2024-01-25T05:20:24;3.28;;;0.90;;
43650;SDS011;29247;50.944;5.382;2024-01-25T05:22:56;0.88;;;0.50;;
43650;SDS011;29247;50.944;5.382;2024-01-25T05:25:22;0.80;;;0.70;;
43650;SDS011;29247;50.944;5.382;2024-01-25T05:27:48;0.68;;;0.68;;
43650;SDS011;29247;50.944;5.382;2024-01-25T05:30:18;0.80;;;0.70;;
43650;SDS011;29247;50.944;5.382;2024-01-25T05:32:49;1.33;;;0.52;;
43650;SDS011;29247;50.944;5.382;2024-01-25T05:35:17;0.55;;;0.55;;
43650;SDS011;29247;50.944;5.382;2024-01-25T05:40:11;2.00;;;0.73;;
43650;SDS011;29247;50.944;5.382;2024-01-25T05:42:39;0.73;;;0.65;;
43650;SDS011;29247;50.944;5.382;2024-01-25T05:45:07;1.33;;;0.70;;
43650;SDS011;29247;50.944;5.382;2024-01-25T05:47:34;1.05;;;0.70;;
43650;SDS011;29247;50.944;5.382;2024-01-25T05:49:59;2.33;;;0.85;;
43650;SDS011;29247;50.944;5.382;2024-01-25T05:52:26;2.47;;;0.50;;
43650;SDS011;29247;50.944;5.382;2024-01-25T05:54:54;1.42;;;0.50;;
43650;SDS011;29247;50.944;5.382;2024-01-25T05:57:22;2.55;;;0.50;;
43650;SDS011;29247;50.944;5.382;2024-01-25T06:02:15;0.40;;;0.40;;
43650;SDS011;29247;50.944;5.382;2024-01-25T06:04:43;0.60;;;0.60;;
43650;SDS011;29247;50.944;5.382;2024-01-25T06:07:09;0.85;;;0.50;;
43650;SDS011;29247;50.944;5.382;2024-01-25T06:09:34;1.08;;;0.55;;
43650;SDS011;29247;50.944;5.382;2024-01-25T06:12:00;1.08;;;0.50;;
43650;SDS011;29247;50.944;5.382;2024-01-25T06:14:26;3.47;;;1.00;;
43650;SDS011;29247;50.944;5.382;2024-01-25T06:16:52;1.27;;;0.70;;
43650;SDS011;29247;50.944;5.382;2024-01-25T06:19:17;0.73;;;0.60;;
43650;SDS011;29247;50.944;5.382;2024-01-25T06:21:43;0.98;;;0.60;;
43650;SDS011;29247;50.944;5.382;2024-01-25T06:26:41;8.05;;;0.98;;
43650;SDS011;29247;50.944;5.382;2024-01-25T06:29:07;2.45;;;0.80;;
43650;SDS011;29247;50.944;5.382;2024-01-25T06:31:43;4.38;;;1.27;;
43650;SDS011;29247;50.944;5.382;2024-01-25T06:34:11;3.90;;;1.65;;
43650;SDS011;29247;50.944;5.382;2024-01-25T06:36:42;4.25;;;1.20;;
43650;SDS011;29247;50.944;5.382;2024-01-25T06:39:07;4.18;;;2.22;;
43650;SDS011;29247;50.944;5.382;2024-01-25T06:41:40;2.53;;;1.33;;
43650;SDS011;29247;50.944;5.382;2024-01-25T06:44:08;23.95;;;2.05;;
43650;SDS011;29247;50.944;5.382;2024-01-25T06:46:39;2.60;;;1.60;;
43650;SDS011;29247;50.944;5.382;2024-01-25T06:49:05;3.65;;;0.98;;
43650;SDS011;29247;50.944;5.382;2024-01-25T06:51:30;3.85;;;1.58;;
43650;SDS011;29247;50.944;5.382;2024-01-25T06:53:57;4.57;;;1.10;;
43650;SDS011;29247;50.944;5.382;2024-01-25T06:56:22;1.85;;;1.02;;
43650;SDS011;29247;50.944;5.382;2024-01-25T06:58:51;2.40;;;1.00;;
43650;SDS011;29247;50.944;5.382;2024-01-25T07:01:22;6.82;;;1.50;;
43650;SDS011;29247;50.944;5.382;2024-01-25T07:03:52;2.00;;;1.00;;
43650;SDS011;29247;50.944;5.382;2024-01-25T07:06:18;2.88;;;1.20;;
43650;SDS011;29247;50.944;5.382;2024-01-25T07:08:46;2.08;;;1.30;;
43650;SDS011;29247;50.944;5.382;2024-01-25T07:11:12;4.25;;;1.80;;
43650;SDS011;29247;50.944;5.382;2024-01-25T07:13:42;30.73;;;9.50;;
43650;SDS011;29247;50.944;5.382;2024-01-25T07:16:07;53.08;;;15.60;;
43650;SDS011;29247;50.944;5.382;2024-01-25T07:18:35;46.80;;;13.98;;
43650;SDS011;29247;50.944;5.382;2024-01-25T07:21:01;49.05;;;14.43;;
43650;SDS011;29247;50.944;5.382;2024-01-25T07:23:30;36.45;;;12.85;;
43650;SDS011;29247;50.944;5.382;2024-01-25T07:25:58;40.20;;;11.18;;
43650;SDS011;29247;50.944;5.382;2024-01-25T07:28:24;22.75;;;9.15;;
43650;SDS011;29247;50.944;5.382;2024-01-25T07:30:50;16.30;;;5.93;;
43650;SDS011;29247;50.944;5.382;2024-01-25T07:33:16;17.92;;;7.15;;
43650;SDS011;29247;50.944;5.382;2024-01-25T07:35:42;16.98;;;7.15;;
43650;SDS011;29247;50.944;5.382;2024-01-25T07:38:16;17.63;;;6.70;;
43650;SDS011;29247;50.944;5.382;2024-01-25T07:40:42;18.95;;;6.55;;
43650;SDS011;29247;50.944;5.382;2024-01-25T07:43:09;18.08;;;4.75;;
43650;SDS011;29247;50.944;5.382;2024-01-25T07:45:34;19.08;;;5.32;;
43650;SDS011;29247;50.944;5.382;2024-01-25T07:48:00;22.33;;;5.97;;
43650;SDS011;29247;50.944;5.382;2024-01-25T07:50:28;18.88;;;4.40;;
43650;SDS011;29247;50.944;5.382;2024-01-25T07:52:54;20.02;;;6.20;;
43650;SDS011;29247;50.944;5.382;2024-01-25T07:55:20;8.35;;;3.90;;
43650;SDS011;29247;50.944;5.382;2024-01-25T07:57:46;17.83;;;4.60;;
43650;SDS011;29247;50.944;5.382;2024-01-25T08:00:11;19.30;;;6.47;;
43650;SDS011;29247;50.944;5.382;2024-01-25T08:02:40;12.77;;;4.18;;
43650;SDS011;29247;50.944;5.382;2024-01-25T08:05:06;14.38;;;4.53;;
43650;SDS011;29247;50.944;5.382;2024-01-25T08:07:32;15.85;;;5.20;;
43650;SDS011;29247;50.944;5.382;2024-01-25T08:10:00;12.20;;;3.67;;
43650;SDS011;29247;50.944;5.382;2024-01-25T08:12:26;10.30;;;3.92;;
43650;SDS011;29247;50.944;5.382;2024-01-25T08:14:54;5.97;;;2.67;;
43650;SDS011;29247;50.944;5.382;2024-01-25T08:17:20;9.90;;;3.20;;
43650;SDS011;29247;50.944;5.382;2024-01-25T08:19:45;14.60;;;4.63;;
43650;SDS011;29247;50.944;5.382;2024-01-25T08:22:11;12.00;;;3.35;;
43650;SDS011;29247;50.944;5.382;2024-01-25T08:24:38;11.57;;;3.65;;
43650;SDS011;29247;50.944;5.382;2024-01-25T08:27:04;17.35;;;3.05;;
43650;SDS011;29247;50.944;5.382;2024-01-25T08:29:34;12.45;;;4.18;;
43650;SDS011;29247;50.944;5.382;2024-01-25T08:32:05;7.25;;;3.55;;
43650;SDS011;29247;50.944;5.382;2024-01-25T08:34:30;10.70;;;3.40;;
43650;SDS011;29247;50.944;5.382;2024-01-25T08:36:56;6.90;;;2.70;;
43650;SDS011;29247;50.944;5.382;2024-01-25T08:39:22;10.40;;;4.10;;
43650;SDS011;29247;50.944;5.382;2024-01-25T08:41:52;12.40;;;3.05;;
43650;SDS011;29247;50.944;5.382;2024-01-25T08:44:21;9.82;;;2.95;;
43650;SDS011;29247;50.944;5.382;2024-01-25T08:46:46;5.22;;;2.80;;
43650;SDS011;29247;50.944;5.382;2024-01-25T08:49:12;7.32;;;2.40;;
43650;SDS011;29247;50.944;5.382;2024-01-25T08:51:38;10.80;;;3.17;;
43650;SDS011;29247;50.944;5.382;2024-01-25T08:54:06;7.63;;;2.15;;
43650;SDS011;29247;50.944;5.382;2024-01-25T08:56:32;12.38;;;2.83;;
43650;SDS011;29247;50.944;5.382;2024-01-25T08:58:57;9.60;;;2.78;;
43650;SDS011;29247;50.944;5.382;2024-01-25T09:01:25;8.93;;;2.67;;
43650;SDS011;29247;50.944;5.382;2024-01-25T09:03:53;3.70;;;1.73;;
43650;SDS011;29247;50.944;5.382;2024-01-25T09:06:25;17.45;;;3.50;;
43650;SDS011;29247;50.944;5.382;2024-01-25T09:08:53;11.93;;;3.05;;
43650;SDS011;29247;50.944;5.382;2024-01-25T09:11:21;10.85;;;2.80;;
43650;SDS011;29247;50.944;5.382;2024-01-25T09:13:47;10.32;;;3.00;;
43650;SDS011;29247;50.944;5.382;2024-01-25T09:16:15;5.95;;;2.83;;
43650;SDS011;29247;50.944;5.382;2024-01-25T09:18:43;11.10;;;3.38;;
43650;SDS011;29247;50.944;5.382;2024-01-25T09:21:09;8.88;;;2.55;;
43650;SDS011;29247;50.944;5.382;2024-01-25T09:23:35;4.90;;;2.65;;
43650;SDS011;29247;50.944;5.382;2024-01-25T09:26:00;5.10;;;2.05;;
43650;SDS011;29247;50.944;5.382;2024-01-25T09:28:28;6.68;;;2.20;;
43650;SDS011;29247;50.944;5.382;2024-01-25T09:30:54;5.60;;;2.63;;
43650;SDS011;29247;50.944;5.382;2024-01-25T09:33:20;7.57;;;3.25;;
43650;SDS011;29247;50.944;5.382;2024-01-25T09:35:48;7.75;;;2.72;;
43650;SDS011;29247;50.944;5.382;2024-01-25T09:38:13;7.45;;;2.55;;
43650;SDS011;29247;50.944;5.382;2024-01-25T09:40:41;6.18;;;2.42;;
43650;SDS011;29247;50.944;5.382;2024-01-25T09:43:07;7.68;;;2.13;;
43650;SDS011;29247;50.944;5.382;2024-01-25T09:45:33;8.50;;;2.13;;
43650;SDS011;29247;50.944;5.382;2024-01-25T09:47:59;8.13;;;2.13;;
43650;SDS011;29247;50.944;5.382;2024-01-25T09:50:30;12.02;;;2.03;;
43650;SDS011;29247;50.944;5.382;2024-01-25T09:52:59;5.55;;;1.95;;
43650;SDS011;29247;50.944;5.382;2024-01-25T09:55:26;7.00;;;2.45;;
43650;SDS011;29247;50.944;5.382;2024-01-25T09:57:53;6.68;;;1.77;;
43650;SDS011;29247;50.944;5.382;2024-01-25T10:00:24;5.60;;;2.05;;
43650;SDS011;29247;50.944;5.382;2024-01-25T10:02:50;11.63;;;1.92;;
43650;SDS011;29247;50.944;5.382;2024-01-25T10:05:18;6.82;;;2.20;;
43650;SDS011;29247;50.944;5.382;2024-01-25T10:07:46;3.08;;;1.98;;
43650;SDS011;29247;50.944;5.382;2024-01-25T10:10:12;6.95;;;2.38;;
43650;SDS011;29247;50.944;5.382;2024-01-25T10:12:39;3.47;;;1.92;;
43650;SDS011;29247;50.944;5.382;2024-01-25T10:15:06;3.97;;;1.85;;
43650;SDS011;29247;50.944;5.382;2024-01-25T10:17:32;9.13;;;2.13;;
43650;SDS011;29247;50.944;5.382;2024-01-25T10:20:00;5.18;;;1.83;;
43650;SDS011;29247;50.944;5.382;2024-01-25T10:22:32;5.53;;;2.33;;
43650;SDS011;29247;50.944;5.382;2024-01-25T10:25:02;11.48;;;2.35;;
43650;SDS011;29247;50.944;5.382;2024-01-25T10:27:31;4.03;;;1.95;;
43650;SDS011;29247;50.944;5.382;2024-01-25T10:29:59;4.13;;;2.20;;
43650;SDS011;29247;50.944;5.382;2024-01-25T10:32:25;9.07;;;2.47;;
43650;SDS011;29247;50.944;5.382;2024-01-25T10:34:51;4.68;;;1.70;;
43650;SDS011;29247;50.944;5.382;2024-01-25T10:37:19;4.57;;;2.28;;
43650;SDS011;29247;50.944;5.382;2024-01-25T10:39:45;6.40;;;1.67;;
43650;SDS011;29247;50.944;5.382;2024-01-25T10:42:11;2.85;;;1.38;;
43650;SDS011;29247;50.944;5.382;2024-01-25T10:44:37;5.07;;;1.63;;
43650;SDS011;29247;50.944;5.382;2024-01-25T10:47:03;4.53;;;2.17;;
43650;SDS011;29247;50.944;5.382;2024-01-25T10:51:59;7.45;;;2.08;;
43650;SDS011;29247;50.944;5.382;2024-01-25T10:54:26;4.38;;;1.52;;
43650;SDS011;29247;50.944;5.382;2024-01-25T10:56:54;4.78;;;1.88;;
43650;SDS011;29247;50.944;5.382;2024-01-25T10:59:20;2.78;;;1.63;;
43650;SDS011;29247;50.944;5.382;2024-01-25T11:01:48;5.95;;;1.40;;
43650;SDS011;29247;50.944;5.382;2024-01-25T11:04:18;6.07;;;1.67;;
43650;SDS011;29247;50.944;5.382;2024-01-25T11:06:44;4.30;;;2.13;;
43650;SDS011;29247;50.944;5.382;2024-01-25T11:09:14;5.93;;;1.63;;
43650;SDS011;29247;50.944;5.382;2024-01-25T11:11:46;4.22;;;1.58;;
43650;SDS011;29247;50.944;5.382;2024-01-25T11:14:14;5.47;;;1.70;;
43650;SDS011;29247;50.944;5.382;2024-01-25T11:16:41;1.75;;;1.05;;
43650;SDS011;29247;50.944;5.382;2024-01-25T11:19:15;1.95;;;1.80;;
43650;SDS011;29247;50.944;5.382;2024-01-25T11:21:52;4.88;;;1.88;;
43650;SDS011;29247;50.944;5.382;2024-01-25T11:26:51;7.07;;;1.90;;
43650;SDS011;29247;50.944;5.382;2024-01-25T11:29:19;2.95;;;1.40;;
43650;SDS011;29247;50.944;5.382;2024-01-25T11:31:48;5.53;;;1.63;;
43650;SDS011;29247;50.944;5.382;2024-01-25T11:34:17;5.95;;;1.77;;
43650;SDS011;29247;50.944;5.382;2024-01-25T11:36:46;3.70;;;1.20;;
43650;SDS011;29247;50.944;5.382;2024-01-25T11:39:15;6.22;;;2.15;;
43650;SDS011;29247;50.944;5.382;2024-01-25T11:41:43;2.80;;;1.58;;
43650;SDS011;29247;50.944;5.382;2024-01-25T11:44:11;4.82;;;1.63;;
43650;SDS011;29247;50.944;5.382;2024-01-25T11:46:43;6.47;;;1.90;;
43650;SDS011;29247;50.944;5.382;2024-01-25T11:51:37;4.78;;;1.52;;
43650;SDS011;29247;50.944;5.382;2024-01-25T11:54:02;3.72;;;1.33;;
43650;SDS011;29247;50.944;5.382;2024-01-25T11:56:32;2.50;;;1.85;;
43650;SDS011;29247;50.944;5.382;2024-01-25T11:59:00;3.35;;;1.77;;
43650;SDS011;29247;50.944;5.382;2024-01-25T12:01:29;3.83;;;1.98;;
43650;SDS011;29247;50.944;5.382;2024-01-25T12:03:55;2.55;;;1.17;;
43650;SDS011;29247;50.944;5.382;2024-01-25T12:06:21;5.85;;;1.50;;
43650;SDS011;29247;50.944;5.382;2024-01-25T12:08:49;6.35;;;1.65;;
43650;SDS011;29247;50.944;5.382;2024-01-25T12:11:16;6.23;;;1.70;;
43650;SDS011;29247;50.944;5.382;2024-01-25T12:13:46;6.30;;;1.92;;
43650;SDS011;29247;50.944;5.382;2024-01-25T12:16:14;4.75;;;1.90;;
43650;SDS011;29247;50.944;5.382;2024-01-25T12:18:40;5.78;;;1.38;;
43650;SDS011;29247;50.944;5.382;2024-01-25T12:21:07;4.63;;;1.27;;
43650;SDS011;29247;50.944;5.382;2024-01-25T12:23:37;3.75;;;1.50;;
43650;SDS011;29247;50.944;5.382;2024-01-25T12:26:09;1.70;;;1.02;;
43650;SDS011;29247;50.944;5.382;2024-01-25T12:28:36;2.72;;;1.25;;
43650;SDS011;29247;50.944;5.382;2024-01-25T12:31:05;2.42;;;1.60;;
43650;SDS011;29247;50.944;5.382;2024-01-25T12:33:32;2.75;;;1.48;;
43650;SDS011;29247;50.944;5.382;2024-01-25T12:36:01;3.45;;;1.50;;
43650;SDS011;29247;50.944;5.382;2024-01-25T12:38:30;7.93;;;1.98;;
43650;SDS011;29247;50.944;5.382;2024-01-25T12:41:01;7.47;;;1.60;;
43650;SDS011;29247;50.944;5.382;2024-01-25T12:43:31;4.70;;;1.35;;
43650;SDS011;29247;50.944;5.382;2024-01-25T12:45:57;5.10;;;1.52;;
43650;SDS011;29247;50.944;5.382;2024-01-25T12:48:23;4.90;;;1.20;;
43650;SDS011;29247;50.944;5.382;2024-01-25T12:50:49;4.20;;;1.27;;
43650;SDS011;29247;50.944;5.382;2024-01-25T12:53:19;3.85;;;1.15;;
43650;SDS011;29247;50.944;5.382;2024-01-25T12:55:47;3.50;;;1.25;;
43650;SDS011;29247;50.944;5.382;2024-01-25T12:58:13;2.53;;;1.20;;
43650;SDS011;29247;50.944;5.382;2024-01-25T13:00:38;1.40;;;0.90;;
43650;SDS011;29247;50.944;5.382;2024-01-25T13:03:10;2.73;;;1.50;;
43650;SDS011;29247;50.944;5.382;2024-01-25T13:05:37;2.53;;;1.30;;
43650;SDS011;29247;50.944;5.382;2024-01-25T13:08:07;2.53;;;1.15;;
43650;SDS011;29247;50.944;5.382;2024-01-25T13:10:33;3.42;;;1.00;;
43650;SDS011;29247;50.944;5.382;2024-01-25T13:12:59;2.50;;;1.60;;
43650;SDS011;29247;50.944;5.382;2024-01-25T13:15:25;1.88;;;1.00;;
43650;SDS011;29247;50.944;5.382;2024-01-25T13:17:52;5.13;;;1.25;;
43650;SDS011;29247;50.944;5.382;2024-01-25T13:20:17;2.15;;;1.05;;
43650;SDS011;29247;50.944;5.382;2024-01-25T13:22:47;3.80;;;1.48;;
43650;SDS011;29247;50.944;5.382;2024-01-25T13:27:43;2.03;;;1.00;;
43650;SDS011;29247;50.944;5.382;2024-01-25T13:30:14;2.00;;;1.20;;
43650;SDS011;29247;50.944;5.382;2024-01-25T13:32:42;4.95;;;1.00;;
43650;SDS011;29247;50.944;5.382;2024-01-25T13:35:08;3.13;;;1.00;;
43650;SDS011;29247;50.944;5.382;2024-01-25T13:37:33;4.20;;;1.60;;
43650;SDS011;29247;50.944;5.382;2024-01-25T13:40:03;2.97;;;1.15;;
43650;SDS011;29247;50.944;5.382;2024-01-25T13:42:32;2.05;;;0.90;;
43650;SDS011;29247;50.944;5.382;2024-01-25T13:47:28;5.10;;;1.30;;
43650;SDS011;29247;50.944;5.382;2024-01-25T13:49:54;3.05;;;1.08;;
43650;SDS011;29247;50.944;5.382;2024-01-25T13:52:19;1.50;;;1.00;;
43650;SDS011;29247;50.944;5.382;2024-01-25T13:54:46;1.83;;;0.90;;
43650;SDS011;29247;50.944;5.382;2024-01-25T13:57:17;3.13;;;1.10;;
43650;SDS011;29247;50.944;5.382;2024-01-25T13:59:45;2.22;;;1.20;;
43650;SDS011;29247;50.944;5.382;2024-01-25T14:02:10;1.33;;;0.95;;
43650;SDS011;29247;50.944;5.382;2024-01-25T14:04:38;2.35;;;0.90;;
43650;SDS011;29247;50.944;5.382;2024-01-25T14:07:04;2.33;;;0.95;;
43650;SDS011;29247;50.944;5.382;2024-01-25T14:09:35;1.67;;;0.95;;
43650;SDS011;29247;50.944;5.382;2024-01-25T14:12:02;1.92;;;0.95;;
43650;SDS011;29247;50.944;5.382;2024-01-25T14:14:30;5.10;;;1.23;;
43650;SDS011;29247;50.944;5.382;2024-01-25T14:16:58;1.63;;;0.80;;
43650;SDS011;29247;50.944;5.382;2024-01-25T14:19:27;1.23;;;0.82;;
43650;SDS011;29247;50.944;5.382;2024-01-25T14:21:52;0.82;;;0.80;;
43650;SDS011;29247;50.944;5.382;2024-01-25T14:24:20;2.35;;;0.95;;
43650;SDS011;29247;50.944;5.382;2024-01-25T14:26:46;0.77;;;0.77;;
43650;SDS011;29247;50.944;5.382;2024-01-25T14:29:12;1.58;;;1.08;;
43650;SDS011;29247;50.944;5.382;2024-01-25T14:31:40;2.42;;;1.00;;
43650;SDS011;29247;50.944;5.382;2024-01-25T14:34:07;2.15;;;1.02;;
43650;SDS011;29247;50.944;5.382;2024-01-25T14:36:38;2.53;;;1.27;;
43650;SDS011;29247;50.944;5.382;2024-01-25T14:39:04;1.35;;;1.23;;
43650;SDS011;29247;50.944;5.382;2024-01-25T14:41:36;0.85;;;0.82;;
43650;SDS011;29247;50.944;5.382;2024-01-25T14:46:32;1.17;;;0.82;;
43650;SDS011;29247;50.944;5.382;2024-01-25T14:48:57;2.03;;;0.80;;
43650;SDS011;29247;50.944;5.382;2024-01-25T14:51:25;3.67;;;1.33;;
43650;SDS011;29247;50.944;5.382;2024-01-25T14:53:51;0.88;;;0.65;;
43650;SDS011;29247;50.944;5.382;2024-01-25T14:56:16;4.07;;;1.00;;
43650;SDS011;29247;50.944;5.382;2024-01-25T14:58:44;1.75;;;0.90;;
43650;SDS011;29247;50.944;5.382;2024-01-25T15:01:15;2.00;;;0.90;;
43650;SDS011;29247;50.944;5.382;2024-01-25T15:03:47;4.60;;;0.98;;
43650;SDS011;29247;50.944;5.382;2024-01-25T15:06:13;2.95;;;0.95;;
43650;SDS011;29247;50.944;5.382;2024-01-25T15:08:39;1.83;;;1.05;;
43650;SDS011;29247;50.944;5.382;2024-01-25T15:11:08;4.28;;;1.30;;
43650;SDS011;29247;50.944;5.382;2024-01-25T15:13:33;1.70;;;0.90;;
43650;SDS011;29247;50.944;5.382;2024-01-25T15:16:01;1.70;;;1.13;;
43650;SDS011;29247;50.944;5.382;2024-01-25T15:18:32;2.20;;;1.00;;
43650;SDS011;29247;50.944;5.382;2024-01-25T15:21:00;1.30;;;0.70;;